createdAt,value
2016-02-10T00:00:16.839Z,8.61
2016-02-10T00:01:16.858Z,8.52
2016-02-10T00:02:16.876Z,8.6
2016-02-10T00:03:16.894Z,8.61
2016-02-10T00:04:16.913Z,8.61
2016-02-10T00:05:16.932Z,8.67
2016-02-10T00:06:16.950Z,8.6
2016-02-10T00:07:16.954Z,8.63
2016-02-10T00:08:16.989Z,8.64
2016-02-10T00:09:17.007Z,8.66
2016-02-10T00:10:17.011Z,8.63
2016-02-10T00:11:17.045Z,8.55
2016-02-10T00:12:17.047Z,8.66
2016-02-10T00:13:17.066Z,8.67
2016-02-10T00:14:16.959Z,8.63
2016-02-10T00:15:17.103Z,8.63
2016-02-10T00:16:17.126Z,8.64
2016-02-10T00:17:17.145Z,8.58
2016-02-10T00:18:17.164Z,8.58
2016-02-10T00:19:17.197Z,8.53
2016-02-10T00:20:17.200Z,8.63
2016-02-10T00:21:17.234Z,8.66
2016-02-10T00:22:17.221Z,8.67
2016-02-10T00:23:17.255Z,8.63
2016-02-10T00:24:17.273Z,8.61
2016-02-10T00:25:17.295Z,8.52
2016-02-10T00:26:17.299Z,8.64
2016-02-10T00:27:17.332Z,8.55
2016-02-10T00:28:17.334Z,8.55
2016-02-10T00:29:17.368Z,8.48
2016-02-10T00:30:17.371Z,8.51
2016-02-10T00:31:17.389Z,8.51
2016-02-10T00:32:17.424Z,8.55
2016-02-10T00:33:17.443Z,8.55
2016-02-10T00:34:17.446Z,8.49
2016-02-10T00:35:17.479Z,8.52
2016-02-10T00:36:17.482Z,8.52
2016-02-10T00:37:17.501Z,8.51
2016-02-10T00:38:17.534Z,8.51
2016-02-10T00:39:17.537Z,8.48
2016-02-10T00:40:17.559Z,8.49
2016-02-10T00:41:17.576Z,8.46
2016-02-10T00:42:17.596Z,8.48
2016-02-10T00:43:17.598Z,8.48
2016-02-10T00:44:17.631Z,8.55
2016-02-10T00:45:17.666Z,8.51
2016-02-10T00:46:17.668Z,8.51
2016-02-10T00:47:17.687Z,8.51
2016-02-10T00:48:17.706Z,8.52
2016-02-10T00:49:17.723Z,8.46
2016-02-10T00:50:17.742Z,8.46
2016-02-10T00:51:17.745Z,8.46
2016-02-10T00:52:17.762Z,8.51
2016-02-10T00:53:17.796Z,8.51
2016-02-10T00:54:17.815Z,8.53
2016-02-10T00:55:17.817Z,8.46
2016-02-10T00:56:17.836Z,8.42
2016-02-10T00:57:17.855Z,8.45
2016-02-10T00:58:17.888Z,8.45
2016-02-10T00:59:17.922Z,8.45
2016-02-10T01:00:17.925Z,8.37
2016-02-10T01:01:17.943Z,8.44
2016-02-10T01:02:17.946Z,8.46
2016-02-10T01:03:17.964Z,8.45
2016-02-10T01:04:17.999Z,8.41
2016-02-10T01:05:18.001Z,8.42
2016-02-10T01:06:18.018Z,8.46
2016-02-10T01:07:18.053Z,8.46
2016-02-10T01:08:18.071Z,8.37
2016-02-10T01:09:18.075Z,8.42
2016-02-10T01:10:18.095Z,8.48
2016-02-10T01:11:18.112Z,8.45
2016-02-10T01:12:18.131Z,8.38
2016-02-10T01:13:18.165Z,8.38
2016-02-10T01:14:18.183Z,8.49
2016-02-10T01:15:18.186Z,8.48
2016-02-10T01:16:18.204Z,8.48
2016-02-10T01:17:18.222Z,8.31
2016-02-10T01:18:18.225Z,8.28
2016-02-10T01:19:18.244Z,8.31
2016-02-10T01:20:18.277Z,8.36
2016-02-10T01:21:18.297Z,8.3
2016-02-10T01:22:18.314Z,8.36
2016-02-10T01:23:18.332Z,8.31
2016-02-10T01:24:18.350Z,8.36
2016-02-10T01:25:18.353Z,8.33
2016-02-10T01:26:18.391Z,8.37
2016-02-10T01:27:18.393Z,8.33
2016-02-10T01:28:18.411Z,8.41
2016-02-10T01:29:18.430Z,8.36
2016-02-10T01:30:24.729Z,8.26
2016-02-10T01:31:18.466Z,8.34
2016-02-10T01:32:18.485Z,8.31
2016-02-10T01:33:18.502Z,8.33
2016-02-10T01:34:18.523Z,8.3
2016-02-10T01:35:18.541Z,8.31
2016-02-10T01:36:18.559Z,8.34
2016-02-10T01:37:18.421Z,8.31
2016-02-10T01:38:18.595Z,8.34
2016-02-10T01:39:18.613Z,8.34
2016-02-10T01:40:18.616Z,8.33
2016-02-10T01:41:18.648Z,8.31
2016-02-10T01:42:18.667Z,8.33
2016-02-10T01:43:18.687Z,8.27
2016-02-10T01:44:18.704Z,8.33
2016-02-10T01:45:18.722Z,8.2
2016-02-10T01:46:18.741Z,8.19
2016-02-10T01:47:18.743Z,8.24
2016-02-10T01:48:18.777Z,8.2
2016-02-10T01:49:18.812Z,8.19
2016-02-10T01:50:18.798Z,8.2
2016-02-10T01:51:18.818Z,8.27
2016-02-10T01:52:18.852Z,8.24
2016-02-10T01:53:18.854Z,8.28
2016-02-10T01:54:18.873Z,8.24
2016-02-10T01:55:18.906Z,8.12
2016-02-10T01:56:18.909Z,8.2
2016-02-10T01:57:18.927Z,8.19
2016-02-10T01:58:18.946Z,8.16
2016-02-10T01:59:18.965Z,8.16
2016-02-10T02:00:18.984Z,8.12
2016-02-10T02:01:19.002Z,8.2
2016-02-10T02:02:19.020Z,8.15
2016-02-10T02:03:19.038Z,8.13
2016-02-10T02:04:19.057Z,8.12
2016-02-10T02:05:19.075Z,8.16
2016-02-10T02:06:19.078Z,8.16
2016-02-10T02:07:19.098Z,8.1
2016-02-10T02:08:19.117Z,8.09
2016-02-10T02:09:19.134Z,8.16
2016-02-10T02:10:19.169Z,8.09
2016-02-10T02:11:19.173Z,8.06
2016-02-10T02:12:19.191Z,8.08
2016-02-10T02:13:19.210Z,8.09
2016-02-10T02:14:19.244Z,8.06
2016-02-10T02:15:19.246Z,8
2016-02-10T02:16:19.265Z,8.06
2016-02-10T02:17:19.268Z,8.01
2016-02-10T02:18:19.301Z,8
2016-02-10T02:19:19.304Z,8.1
2016-02-10T02:20:19.323Z,8.05
2016-02-10T02:21:19.356Z,8
2016-02-10T02:22:19.375Z,8.01
2016-02-10T02:23:19.378Z,8
2016-02-10T02:24:19.411Z,8
2016-02-10T02:25:19.429Z,8.05
2016-02-10T02:26:19.479Z,7.98
2016-02-10T02:27:19.451Z,8.08
2016-02-10T02:28:19.470Z,8.05
2016-02-10T02:29:19.488Z,8.03
2016-02-10T02:30:19.507Z,8.05
2016-02-10T02:31:19.526Z,7.98
2016-02-10T02:32:19.543Z,7.95
2016-02-10T02:33:19.718Z,8.01
2016-02-10T02:34:19.595Z,7.95
2016-02-10T02:35:19.598Z,8
2016-02-10T02:36:19.600Z,7.98
2016-02-10T02:37:19.620Z,7.97
2016-02-10T02:38:19.637Z,7.95
2016-02-10T02:39:19.656Z,7.98
2016-02-10T02:40:19.675Z,8.01
2016-02-10T02:41:19.708Z,8.01
2016-02-10T02:42:19.711Z,7.94
2016-02-10T02:43:19.732Z,7.97
2016-02-10T02:44:19.766Z,7.98
2016-02-10T02:45:19.753Z,8.03
2016-02-10T02:46:19.787Z,8
2016-02-10T02:47:19.805Z,7.91
2016-02-10T02:48:19.808Z,8.01
2016-02-10T02:49:19.842Z,7.9
2016-02-10T02:50:19.844Z,7.93
2016-02-10T02:51:19.863Z,7.93
2016-02-10T02:52:19.895Z,7.91
2016-02-10T02:53:19.888Z,7.87
2016-02-10T02:54:19.895Z,7.91
2016-02-10T02:55:19.917Z,7.87
2016-02-10T02:56:19.909Z,7.85
2016-02-10T02:57:19.917Z,7.85
2016-02-10T02:58:19.931Z,7.87
2016-02-10T02:59:19.930Z,7.88
2016-02-10T03:00:19.961Z,7.85
2016-02-10T03:01:19.960Z,7.91
2016-02-10T03:02:19.990Z,7.82
2016-02-10T03:03:19.992Z,7.87
2016-02-10T03:04:20.007Z,7.91
2016-02-10T03:05:20.040Z,7.9
2016-02-10T03:06:20.041Z,7.9
2016-02-10T03:07:20.058Z,7.98
2016-02-10T03:08:20.093Z,7.94
2016-02-10T03:09:20.095Z,7.98
2016-02-10T03:10:20.113Z,7.98
2016-02-10T03:11:20.132Z,7.93
2016-02-10T03:12:20.149Z,7.91
2016-02-10T03:13:20.158Z,7.87
2016-02-10T03:14:20.177Z,7.91
2016-02-10T03:15:20.210Z,7.93
2016-02-10T03:16:20.213Z,7.93
2016-02-10T03:17:20.231Z,7.98
2016-02-10T03:18:20.249Z,7.95
2016-02-10T03:19:20.269Z,7.93
2016-02-10T03:20:20.289Z,7.98
2016-02-10T03:21:20.322Z,7.87
2016-02-10T03:22:20.325Z,7.88
2016-02-10T03:23:20.328Z,7.91
2016-02-10T03:24:20.362Z,7.8
2016-02-10T03:25:20.396Z,7.87
2016-02-10T03:26:20.383Z,7.83
2016-02-10T03:27:20.418Z,7.88
2016-02-10T03:28:20.263Z,7.79
2016-02-10T03:29:20.438Z,7.85
2016-02-10T03:30:20.440Z,7.85
2016-02-10T03:31:20.475Z,7.85
2016-02-10T03:32:20.493Z,7.85
2016-02-10T03:33:20.511Z,7.82
2016-02-10T03:34:20.546Z,7.83
2016-02-10T03:35:20.548Z,7.83
2016-02-10T03:36:20.567Z,7.77
2016-02-10T03:37:20.570Z,7.85
2016-02-10T03:38:20.603Z,7.85
2016-02-10T03:39:20.606Z,7.77
2016-02-10T03:40:20.624Z,7.82
2016-02-10T03:41:20.658Z,7.8
2016-02-10T03:42:20.676Z,7.83
2016-02-10T03:43:20.679Z,7.76
2016-02-10T03:44:20.703Z,7.83
2016-02-10T03:45:20.737Z,7.82
2016-02-10T03:46:20.740Z,7.76
2016-02-10T03:47:20.742Z,7.82
2016-02-10T03:48:20.776Z,7.79
2016-02-10T03:49:20.780Z,7.82
2016-02-10T03:50:20.799Z,7.79
2016-02-10T03:51:20.833Z,7.82
2016-02-10T03:52:20.835Z,7.82
2016-02-10T03:53:20.854Z,7.8
2016-02-10T03:54:20.904Z,7.83
2016-02-10T03:55:20.891Z,7.8
2016-02-10T03:56:20.893Z,7.8
2016-02-10T03:57:20.927Z,7.82
2016-02-10T03:58:20.930Z,7.79
2016-02-10T03:59:20.949Z,7.76
2016-02-10T04:00:20.967Z,7.75
2016-02-10T04:01:20.985Z,7.79
2016-02-10T04:02:21.004Z,7.67
2016-02-10T04:03:21.021Z,7.67
2016-02-10T04:04:21.040Z,7.72
2016-02-10T04:05:21.058Z,7.7
2016-02-10T04:06:21.077Z,7.75
2016-02-10T04:07:20.939Z,7.67
2016-02-10T04:08:21.114Z,7.75
2016-02-10T04:09:21.118Z,7.69
2016-02-10T04:10:21.135Z,7.66
2016-02-10T04:11:21.154Z,7.7
2016-02-10T04:12:21.171Z,7.61
2016-02-10T04:13:21.190Z,7.61
2016-02-10T04:14:21.209Z,7.66
2016-02-10T04:15:21.244Z,7.63
2016-02-10T04:16:21.262Z,7.61
2016-02-10T04:17:21.265Z,7.66
2016-02-10T04:18:21.284Z,7.57
2016-02-10T04:19:21.302Z,7.57
2016-02-10T04:20:21.305Z,7.63
2016-02-10T04:21:21.339Z,7.61
2016-02-10T04:22:21.342Z,7.61
2016-02-10T04:23:21.360Z,7.51
2016-02-10T04:24:21.394Z,7.51
2016-02-10T04:25:21.397Z,7.57
2016-02-10T04:26:21.419Z,7.45
2016-02-10T04:27:21.438Z,7.5
2016-02-10T04:28:21.441Z,7.5
2016-02-10T04:29:21.474Z,7.56
2016-02-10T04:30:21.477Z,7.54
2016-02-10T04:31:21.496Z,7.56
2016-02-10T04:32:21.529Z,7.53
2016-02-10T04:33:21.532Z,7.54
2016-02-10T04:34:21.393Z,7.5
2016-02-10T04:35:21.569Z,7.5
2016-02-10T04:36:21.587Z,7.5
2016-02-10T04:37:21.606Z,7.5
2016-02-10T04:38:21.624Z,7.48
2016-02-10T04:39:21.626Z,7.51
2016-02-10T04:40:21.645Z,7.47
2016-02-10T04:41:21.695Z,7.47
2016-02-10T04:42:21.697Z,7.53
2016-02-10T04:43:21.701Z,7.47
2016-02-10T04:44:21.562Z,7.51
2016-02-10T04:45:21.754Z,7.48
2016-02-10T04:46:21.744Z,7.54
2016-02-10T04:47:21.763Z,7.51
2016-02-10T04:48:21.796Z,7.48
2016-02-10T04:49:21.799Z,7.48
2016-02-10T04:50:21.817Z,7.48
2016-02-10T04:51:21.851Z,7.47
2016-02-10T04:52:21.854Z,7.39
2016-02-10T04:53:21.872Z,7.51
2016-02-10T04:54:21.953Z,7.42
2016-02-10T04:55:21.910Z,7.43
2016-02-10T04:56:21.928Z,7.43
2016-02-10T04:57:21.946Z,7.4
2016-02-10T04:58:21.949Z,7.45
2016-02-10T04:59:21.983Z,7.39
2016-02-10T05:00:21.986Z,7.42
2016-02-10T05:01:22.004Z,7.42
2016-02-10T05:02:22.039Z,7.42
2016-02-10T05:03:22.056Z,7.48
2016-02-10T05:04:22.060Z,7.4
2016-02-10T05:05:22.078Z,7.42
2016-02-10T05:06:22.096Z,7.36
2016-02-10T05:07:22.100Z,7.42
2016-02-10T05:08:22.133Z,7.36
2016-02-10T05:09:22.136Z,7.5
2016-02-10T05:10:22.158Z,7.36
2016-02-10T05:11:22.191Z,7.35
2016-02-10T05:12:22.194Z,7.4
2016-02-10T05:13:22.212Z,7.4
2016-02-10T05:14:22.230Z,7.47
2016-02-10T05:15:22.263Z,7.4
2016-02-10T05:16:22.252Z,7.4
2016-02-10T05:17:22.276Z,7.35
2016-02-10T05:18:22.310Z,7.4
2016-02-10T05:19:22.298Z,7.31
2016-02-10T05:20:22.331Z,7.33
2016-02-10T05:21:22.351Z,7.31
2016-02-10T05:22:22.353Z,7.28
2016-02-10T05:23:22.370Z,7.35
2016-02-10T05:24:22.404Z,7.32
2016-02-10T05:25:22.407Z,7.35
2016-02-10T05:26:22.441Z,7.38
2016-02-10T05:27:22.445Z,7.31
2016-02-10T05:28:22.463Z,7.31
2016-02-10T05:29:22.481Z,7.33
2016-02-10T05:30:22.501Z,7.25
2016-02-10T05:31:22.518Z,7.25
2016-02-10T05:32:22.520Z,7.31
2016-02-10T05:33:22.540Z,7.29
2016-02-10T05:34:22.573Z,7.24
2016-02-10T05:35:22.576Z,7.29
2016-02-10T05:36:22.596Z,7.31
2016-02-10T05:37:22.629Z,7.32
2016-02-10T05:38:22.633Z,7.21
2016-02-10T05:39:22.652Z,7.25
2016-02-10T05:40:22.669Z,7.28
2016-02-10T05:41:22.671Z,7.33
2016-02-10T05:42:22.691Z,7.24
2016-02-10T05:43:22.708Z,7.2
2016-02-10T05:44:22.726Z,7.21
2016-02-10T05:45:22.746Z,7.33
2016-02-10T05:46:22.763Z,7.2
2016-02-10T05:47:22.784Z,7.2
2016-02-10T05:48:22.802Z,7.18
2016-02-10T05:49:22.820Z,7.29
2016-02-10T05:50:22.854Z,7.18
2016-02-10T05:51:22.872Z,7.24
2016-02-10T05:52:22.859Z,7.21
2016-02-10T05:53:22.879Z,7.21
2016-02-10T05:54:22.912Z,7.17
2016-02-10T05:55:22.915Z,7.2
2016-02-10T05:56:22.933Z,7.15
2016-02-10T05:57:22.951Z,7.2
2016-02-10T05:58:22.954Z,7.23
2016-02-10T05:59:22.972Z,7.2
2016-02-10T06:00:22.991Z,7.15
2016-02-10T06:01:23.008Z,7.18
2016-02-10T06:02:23.028Z,7.15
2016-02-10T06:03:23.047Z,7.15
2016-02-10T06:04:23.081Z,7.14
2016-02-10T06:05:23.083Z,7.15
2016-02-10T06:06:23.086Z,7.18
2016-02-10T06:07:23.120Z,7.17
2016-02-10T06:08:23.122Z,7.11
2016-02-10T06:09:23.141Z,7.21
2016-02-10T06:10:23.175Z,7.2
2016-02-10T06:11:23.178Z,7.17
2016-02-10T06:12:23.199Z,7.14
2016-02-10T06:13:23.201Z,7.17
2016-02-10T06:14:23.235Z,7.18
2016-02-10T06:15:23.253Z,7.18
2016-02-10T06:16:23.273Z,7.17
2016-02-10T06:17:23.276Z,7.18
2016-02-10T06:18:23.309Z,7.17
2016-02-10T06:19:23.312Z,7.14
2016-02-10T06:20:23.316Z,7.15
2016-02-10T06:21:23.350Z,7.18
2016-02-10T06:22:23.368Z,7.18
2016-02-10T06:23:23.370Z,7.13
2016-02-10T06:24:23.405Z,7.14
2016-02-10T06:25:23.407Z,7.2
2016-02-10T06:26:23.426Z,7.13
2016-02-10T06:27:23.445Z,7.2
2016-02-10T06:28:23.448Z,7.17
2016-02-10T06:29:23.482Z,7.17
2016-02-10T06:30:23.484Z,7.15
2016-02-10T06:31:23.518Z,7.14
2016-02-10T06:32:23.521Z,7.18
2016-02-10T06:33:23.540Z,7.23
2016-02-10T06:34:23.573Z,7.17
2016-02-10T06:35:23.576Z,7.15
2016-02-10T06:36:23.595Z,7.17
2016-02-10T06:37:23.612Z,7.18
2016-02-10T06:38:23.615Z,7.18
2016-02-10T06:39:23.634Z,7.18
2016-02-10T06:40:23.667Z,7.17
2016-02-10T06:41:23.670Z,7.17
2016-02-10T06:42:23.689Z,7.17
2016-02-10T06:43:23.722Z,7.17
2016-02-10T06:44:23.726Z,7.15
2016-02-10T06:45:23.759Z,7.13
2016-02-10T06:46:23.762Z,7.15
2016-02-10T06:47:23.783Z,7.1
2016-02-10T06:48:23.817Z,7.13
2016-02-10T06:49:23.804Z,7.15
2016-02-10T06:50:23.823Z,7.2
2016-02-10T06:51:23.841Z,7.21
2016-02-10T06:52:23.858Z,7.07
2016-02-10T06:53:23.878Z,7.18
2016-02-10T06:54:23.896Z,7.15
2016-02-10T06:55:23.899Z,7.18
2016-02-10T06:56:23.934Z,7.15
2016-02-10T06:57:23.952Z,7.23
2016-02-10T06:58:23.955Z,7.11
2016-02-10T06:59:23.974Z,7.15
2016-02-10T07:00:23.992Z,7.11
2016-02-10T07:01:24.010Z,7.21
2016-02-10T07:02:24.028Z,7.15
2016-02-10T07:03:24.047Z,7.21
2016-02-10T07:04:24.083Z,7.14
2016-02-10T07:05:24.069Z,7.13
2016-02-10T07:06:24.089Z,7.05
2016-02-10T07:07:24.122Z,7.07
2016-02-10T07:08:24.125Z,7.06
2016-02-10T07:09:24.144Z,7.13
2016-02-10T07:10:24.162Z,7.14
2016-02-10T07:11:24.179Z,7.13
2016-02-10T07:12:24.183Z,7.2
2016-02-10T07:13:24.218Z,7.21
2016-02-10T07:14:24.221Z,7.14
2016-02-10T07:15:24.255Z,7.18
2016-02-10T07:16:24.257Z,7.17
2016-02-10T07:17:24.276Z,7.14
2016-02-10T07:18:24.489Z,7.17
2016-02-10T07:19:24.320Z,7.18
2016-02-10T07:20:24.322Z,7.15
2016-02-10T07:21:24.341Z,7.18
2016-02-10T07:22:24.358Z,7.06
2016-02-10T07:23:24.361Z,7.17
2016-02-10T07:24:24.380Z,7.18
2016-02-10T07:25:24.397Z,7.21
2016-02-10T07:26:24.416Z,7.2
2016-02-10T07:27:24.450Z,7.23
2016-02-10T07:28:24.452Z,7.11
2016-02-10T07:29:24.471Z,7.17
2016-02-10T07:30:24.491Z,7.21
2016-02-10T07:31:24.509Z,7.17
2016-02-10T07:32:24.527Z,7.15
2016-02-10T07:33:24.530Z,7.2
2016-02-10T07:34:24.548Z,7.2
2016-02-10T07:35:24.566Z,7.23
2016-02-10T07:36:23.835Z,7.17
2016-02-10T07:37:24.603Z,7.2
2016-02-10T07:38:24.607Z,7.17
2016-02-10T07:39:24.626Z,7.17
2016-02-10T07:40:24.660Z,7.15
2016-02-10T07:41:24.662Z,7.21
2016-02-10T07:42:24.681Z,7.13
2016-02-10T07:43:24.715Z,7.2
2016-02-10T07:44:24.734Z,7.15
2016-02-10T07:45:24.721Z,7.15
2016-02-10T07:46:24.755Z,7.17
2016-02-10T07:47:24.774Z,7.15
2016-02-10T07:48:24.776Z,7.17
2016-02-10T07:49:24.810Z,7.17
2016-02-10T07:50:24.813Z,7.17
2016-02-10T07:51:24.848Z,7.17
2016-02-10T07:52:24.850Z,7.1
2016-02-10T07:53:24.869Z,7.18
2016-02-10T07:54:24.888Z,7.15
2016-02-10T07:55:24.905Z,7.2
2016-02-10T07:56:24.924Z,7.15
2016-02-10T07:57:24.926Z,7.21
2016-02-10T07:58:24.960Z,7.2
2016-02-10T07:59:24.978Z,7.17
2016-02-10T08:00:24.982Z,7.17
2016-02-10T08:01:25.015Z,7.17
2016-02-10T08:02:25.034Z,7.18
2016-02-10T08:03:25.101Z,7.24
2016-02-10T08:04:25.494Z,7.15
2016-02-10T08:05:25.059Z,7.21
2016-02-10T08:06:25.080Z,7.18
2016-02-10T08:07:25.129Z,7.17
2016-02-10T08:08:24.960Z,7.14
2016-02-10T08:09:25.135Z,7.11
2016-02-10T08:10:25.153Z,7.13
2016-02-10T08:11:25.155Z,7.13
2016-02-10T08:12:25.189Z,7.18
2016-02-10T08:13:25.207Z,7.15
2016-02-10T08:14:25.229Z,7.15
2016-02-10T08:15:25.247Z,7.13
2016-02-10T08:16:25.266Z,7.18
2016-02-10T08:17:25.268Z,7.24
2016-02-10T08:18:25.287Z,7.24
2016-02-10T08:19:25.294Z,7.17
2016-02-10T08:20:25.312Z,7.18
2016-02-10T08:21:25.331Z,7.32
2016-02-10T08:22:25.350Z,7.36
2016-02-10T08:23:25.352Z,7.31
2016-02-10T08:24:25.387Z,7.31
2016-02-10T08:25:25.405Z,7.31
2016-02-10T08:26:25.407Z,7.29
2016-02-10T08:27:25.441Z,7.36
2016-02-10T08:28:25.445Z,7.35
2016-02-10T08:29:25.463Z,7.39
2016-02-10T08:30:25.482Z,7.42
2016-02-10T08:31:25.501Z,7.36
2016-02-10T08:32:25.503Z,7.35
2016-02-10T08:33:25.523Z,7.48
2016-02-10T08:34:25.556Z,7.45
2016-02-10T08:35:25.574Z,7.48
2016-02-10T08:36:25.578Z,7.42
2016-02-10T08:37:25.611Z,7.43
2016-02-10T08:38:25.614Z,7.43
2016-02-10T08:39:25.649Z,7.47
2016-02-10T08:40:25.682Z,7.45
2016-02-10T08:41:25.669Z,7.47
2016-02-10T08:42:25.703Z,7.45
2016-02-10T08:43:25.706Z,7.51
2016-02-10T08:44:25.725Z,7.5
2016-02-10T08:45:25.743Z,7.5
2016-02-10T08:46:25.746Z,7.5
2016-02-10T08:47:25.781Z,7.58
2016-02-10T08:48:25.799Z,7.6
2016-02-10T08:49:25.801Z,7.5
2016-02-10T08:50:25.811Z,7.61
2016-02-10T08:51:25.922Z,7.57
2016-02-10T08:52:25.863Z,7.63
2016-02-10T08:53:25.866Z,7.66
2016-02-10T08:54:25.869Z,7.6
2016-02-10T08:55:25.902Z,7.66
2016-02-10T08:56:25.906Z,7.69
2016-02-10T08:57:25.925Z,7.63
2016-02-10T08:58:25.959Z,7.7
2016-02-10T08:59:25.977Z,7.76
2016-02-10T09:00:25.980Z,7.73
2016-02-10T09:01:26.124Z,7.73
2016-02-10T09:02:26.111Z,7.82
2016-02-10T09:03:26.035Z,7.77
2016-02-10T09:04:26.037Z,7.76
2016-02-10T09:05:26.073Z,7.82
2016-02-10T09:06:26.075Z,7.87
2016-02-10T09:07:26.109Z,7.9
2016-02-10T09:08:26.127Z,7.9
2016-02-10T09:09:26.145Z,7.9
2016-02-10T09:10:26.148Z,7.93
2016-02-10T09:11:26.150Z,8
2016-02-10T09:12:26.184Z,8.01
2016-02-10T09:13:26.187Z,7.98
2016-02-10T09:14:26.207Z,8
2016-02-10T09:15:26.256Z,7.97
2016-02-10T09:16:26.275Z,7.97
2016-02-10T09:17:26.261Z,8
2016-02-10T09:18:26.280Z,8.05
2016-02-10T09:19:26.298Z,8.06
2016-02-10T09:20:26.320Z,8.06
2016-02-10T09:21:26.324Z,8.09
2016-02-10T09:22:26.342Z,8.09
2016-02-10T09:23:26.376Z,8.06
2016-02-10T09:24:26.379Z,8.15
2016-02-10T09:25:26.413Z,8.13
2016-02-10T09:26:26.416Z,8.2
2016-02-10T09:27:26.434Z,8.13
2016-02-10T09:28:26.452Z,8.16
2016-02-10T09:29:26.470Z,8.19
2016-02-10T09:30:26.474Z,8.16
2016-02-10T09:31:26.491Z,8.18
2016-02-10T09:32:26.511Z,8.2
2016-02-10T09:33:26.530Z,8.27
2016-02-10T09:34:26.547Z,8.2
2016-02-10T09:35:26.581Z,8.16
2016-02-10T09:36:26.584Z,8.24
2016-02-10T09:37:26.618Z,8.18
2016-02-10T09:38:26.621Z,8.23
2016-02-10T09:39:26.654Z,8.18
2016-02-10T09:40:26.658Z,8.24
2016-02-10T09:41:26.677Z,8.13
2016-02-10T09:42:26.694Z,8.24
2016-02-10T09:43:26.713Z,8.24
2016-02-10T09:44:26.747Z,8.2
2016-02-10T09:45:26.750Z,8.2
2016-02-10T09:46:26.768Z,8.24
2016-02-10T09:47:26.786Z,8.27
2016-02-10T09:48:26.804Z,8.33
2016-02-10T09:49:26.810Z,8.26
2016-02-10T09:50:26.828Z,8.33
2016-02-10T09:51:26.862Z,8.34
2016-02-10T09:52:26.895Z,8.36
2016-02-10T09:53:26.870Z,8.31
2016-02-10T09:54:26.887Z,8.33
2016-02-10T09:55:26.922Z,8.41
2016-02-10T09:56:26.925Z,8.36
2016-02-10T09:57:26.939Z,8.46
2016-02-10T09:58:26.958Z,8.38
2016-02-10T09:59:26.977Z,8.38
2016-02-10T10:00:26.994Z,8.44
2016-02-10T10:01:27.013Z,8.42
2016-02-10T10:02:27.030Z,8.46
2016-02-10T10:03:27.049Z,8.51
2016-02-10T10:04:27.067Z,8.55
2016-02-10T10:05:27.072Z,8.51
2016-02-10T10:06:27.105Z,8.55
2016-02-10T10:07:27.108Z,8.58
2016-02-10T10:08:27.142Z,8.51
2016-02-10T10:09:27.160Z,8.61
2016-02-10T10:10:27.178Z,8.6
2016-02-10T10:11:27.181Z,8.69
2016-02-10T10:12:27.200Z,8.7
2016-02-10T10:13:27.219Z,8.7
2016-02-10T10:14:27.222Z,8.7
2016-02-10T10:15:27.240Z,8.73
2016-02-10T10:16:27.273Z,8.74
2016-02-10T10:17:27.341Z,8.73
2016-02-10T10:18:27.296Z,8.76
2016-02-10T10:19:27.330Z,8.85
2016-02-10T10:20:27.333Z,8.74
2016-02-10T10:21:27.351Z,8.88
2016-02-10T10:22:27.746Z,8.89
2016-02-10T10:23:27.390Z,8.92
2016-02-10T10:24:27.424Z,9.03
2016-02-10T10:25:27.443Z,8.99
2016-02-10T10:26:27.476Z,9.03
2016-02-10T10:27:27.464Z,9.16
2016-02-10T10:28:27.481Z,9.16
2016-02-10T10:29:27.500Z,9.13
2016-02-10T10:30:27.518Z,9.21
2016-02-10T10:31:27.537Z,9.21
2016-02-10T10:32:27.555Z,9.28
2016-02-10T10:33:27.574Z,9.21
2016-02-10T10:34:27.593Z,9.25
2016-02-10T10:35:27.596Z,9.32
2016-02-10T10:36:27.614Z,9.36
2016-02-10T10:37:27.648Z,9.41
2016-02-10T10:38:27.698Z,9.5
2016-02-10T10:39:27.512Z,9.41
2016-02-10T10:40:27.687Z,9.47
2016-02-10T10:41:27.705Z,9.44
2016-02-10T10:42:27.740Z,9.46
2016-02-10T10:43:27.898Z,9.44
2016-02-10T10:44:27.762Z,9.41
2016-02-10T10:45:27.779Z,9.55
2016-02-10T10:46:27.798Z,9.5
2016-02-10T10:47:27.831Z,9.55
2016-02-10T10:48:27.865Z,9.48
2016-02-10T10:49:27.884Z,9.56
2016-02-10T10:50:27.888Z,9.56
2016-02-10T10:51:27.880Z,9.55
2016-02-10T10:52:27.913Z,9.56
2016-02-10T10:53:27.919Z,9.65
2016-02-10T10:54:27.954Z,9.64
2016-02-10T10:55:27.956Z,9.59
2016-02-10T10:56:27.974Z,9.68
2016-02-10T10:57:27.993Z,9.66
2016-02-10T10:58:28.027Z,9.68
2016-02-10T10:59:28.030Z,9.74
2016-02-10T11:00:28.048Z,9.77
2016-02-10T11:01:28.066Z,9.65
2016-02-10T11:02:28.069Z,9.69
2016-02-10T11:03:28.103Z,9.65
2016-02-10T11:04:28.106Z,9.76
2016-02-10T11:05:28.155Z,9.76
2016-02-10T11:06:28.158Z,9.8
2016-02-10T11:07:28.177Z,9.82
2016-02-10T11:08:28.195Z,9.82
2016-02-10T11:09:28.213Z,9.82
2016-02-10T11:10:28.231Z,9.82
2016-02-10T11:11:28.265Z,9.83
2016-02-10T11:12:28.268Z,9.79
2016-02-10T11:13:28.286Z,9.84
2016-02-10T11:14:28.304Z,9.86
2016-02-10T11:15:28.450Z,9.95
2016-02-10T11:16:28.344Z,9.98
2016-02-10T11:17:28.362Z,9.95
2016-02-10T11:18:28.380Z,9.92
2016-02-10T11:19:28.400Z,9.97
2016-02-10T11:20:28.402Z,9.97
2016-02-10T11:21:28.421Z,10.05
2016-02-10T11:22:28.455Z,9.94
2016-02-10T11:23:28.473Z,10.04
2016-02-10T11:24:28.478Z,10.05
2016-02-10T11:25:28.497Z,10.09
2016-02-10T11:26:28.530Z,10.1
2016-02-10T11:27:28.533Z,10.13
2016-02-10T11:28:28.551Z,10.1
2016-02-10T11:29:28.569Z,10.04
2016-02-10T11:30:28.603Z,10.07
2016-02-10T11:31:28.606Z,10.07
2016-02-10T11:32:28.626Z,10.13
2016-02-10T11:33:28.644Z,10.1
2016-02-10T11:34:28.662Z,10.15
2016-02-10T11:35:28.714Z,10.16
2016-02-10T11:36:28.716Z,10.09
2016-02-10T11:37:28.719Z,10.1
2016-02-10T11:38:28.738Z,10.07
2016-02-10T11:39:28.771Z,10.04
2016-02-10T11:40:28.789Z,10.01
2016-02-10T11:41:28.792Z,9.95
2016-02-10T11:42:28.857Z,9.99
2016-02-10T11:43:28.829Z,10.09
2016-02-10T11:44:28.847Z,9.99
2016-02-10T11:45:28.866Z,10.02
2016-02-10T11:46:28.915Z,9.94
2016-02-10T11:47:28.918Z,9.98
2016-02-10T11:48:28.921Z,9.98
2016-02-10T11:49:28.954Z,9.97
2016-02-10T11:50:28.957Z,9.94
2016-02-10T11:51:28.979Z,9.87
2016-02-10T11:52:28.997Z,9.91
2016-02-10T11:53:29.032Z,9.95
2016-02-10T11:54:29.035Z,9.95
2016-02-10T11:55:29.068Z,9.94
2016-02-10T11:56:29.086Z,9.91
2016-02-10T11:57:29.089Z,9.87
2016-02-10T11:58:29.119Z,9.89
2016-02-10T11:59:29.107Z,9.87
2016-02-10T12:00:29.114Z,9.84
2016-02-10T12:01:29.118Z,9.95
2016-02-10T12:02:29.121Z,9.83
2016-02-10T12:03:29.145Z,9.79
2016-02-10T12:04:29.142Z,9.82
2016-02-10T12:05:29.171Z,9.83
2016-02-10T12:06:29.169Z,9.77
2016-02-10T12:07:29.182Z,9.76
2016-02-10T12:08:29.197Z,9.8
2016-02-10T12:09:29.215Z,9.79
2016-02-10T12:10:29.230Z,9.79
2016-02-10T12:11:29.247Z,9.8
2016-02-10T12:12:29.264Z,9.77
2016-02-10T12:13:29.280Z,9.79
2016-02-10T12:14:29.299Z,9.79
2016-02-10T12:15:29.317Z,9.76
2016-02-10T12:16:29.350Z,9.82
2016-02-10T12:17:29.350Z,9.82
2016-02-10T12:18:29.368Z,9.79
2016-02-10T12:19:29.386Z,9.84
2016-02-10T12:20:29.404Z,9.74
2016-02-10T12:21:29.437Z,9.72
2016-02-10T12:22:29.445Z,9.73
2016-02-10T12:23:29.462Z,9.65
2016-02-10T12:24:29.481Z,9.77
2016-02-10T12:25:29.500Z,9.69
2016-02-10T12:26:29.517Z,9.64
2016-02-10T12:27:29.536Z,9.77
2016-02-10T12:28:29.570Z,9.68
2016-02-10T12:29:29.572Z,9.77
2016-02-10T12:30:29.606Z,9.72
2016-02-10T12:31:29.609Z,9.72
2016-02-10T12:32:29.627Z,9.66
2016-02-10T12:33:29.647Z,9.82
2016-02-10T12:34:29.665Z,9.69
2016-02-10T12:35:29.700Z,9.64
2016-02-10T12:36:29.702Z,9.8
2016-02-10T12:37:29.736Z,9.65
2016-02-10T12:38:29.739Z,9.72
2016-02-10T12:39:29.756Z,9.62
2016-02-10T12:40:29.775Z,9.73
2016-02-10T12:41:29.794Z,9.69
2016-02-10T12:42:29.827Z,9.73
2016-02-10T12:43:29.830Z,9.76
2016-02-10T12:44:29.849Z,9.72
2016-02-10T12:45:29.866Z,9.79
2016-02-10T12:46:29.900Z,9.77
2016-02-10T12:47:29.903Z,9.66
2016-02-10T12:48:29.921Z,9.84
2016-02-10T12:49:29.940Z,9.66
2016-02-10T12:50:29.959Z,9.66
2016-02-10T12:51:29.987Z,9.8
2016-02-10T12:52:30.004Z,9.72
2016-02-10T12:53:30.039Z,9.66
2016-02-10T12:54:30.041Z,9.79
2016-02-10T12:55:30.044Z,9.61
2016-02-10T12:56:30.078Z,9.77
2016-02-10T12:57:30.112Z,9.66
2016-02-10T12:58:30.114Z,9.69
2016-02-10T12:59:30.148Z,9.69
2016-02-10T13:00:30.151Z,9.64
2016-02-10T13:01:30.154Z,9.62
2016-02-10T13:02:30.190Z,9.62
2016-02-10T13:03:30.207Z,9.68
2016-02-10T13:04:30.225Z,9.65
2016-02-10T13:05:30.243Z,9.74
2016-02-10T13:06:30.262Z,9.68
2016-02-10T13:07:30.280Z,9.69
2016-02-10T13:08:30.314Z,9.72
2016-02-10T13:09:30.317Z,9.73
2016-02-10T13:10:30.353Z,9.69
2016-02-10T13:11:30.355Z,9.58
2016-02-10T13:12:30.374Z,9.64
2016-02-10T13:13:30.392Z,9.56
2016-02-10T13:14:30.411Z,9.61
2016-02-10T13:15:30.429Z,9.54
2016-02-10T13:16:30.447Z,9.55
2016-02-10T13:17:30.465Z,9.58
2016-02-10T13:18:30.500Z,9.56
2016-02-10T13:19:30.488Z,9.55
2016-02-10T13:20:30.553Z,9.59
2016-02-10T13:21:30.555Z,9.56